createdAt,value
2018-05-03T00:00:07.598Z,100148.14
2018-05-03T00:02:35.105Z,100151.03
2018-05-03T00:05:02.608Z,100139.59
2018-05-03T00:07:30.085Z,100140.56
2018-05-03T00:09:57.559Z,100141.06
2018-05-03T00:12:25.033Z,100144.95
2018-05-03T00:14:52.563Z,100148.39
2018-05-03T00:17:20.071Z,100145.02
2018-05-03T00:19:47.593Z,100145.20
2018-05-03T00:22:15.088Z,100148.61
2018-05-03T00:24:42.578Z,100150.91
2018-05-03T00:27:10.090Z,100148.92
2018-05-03T00:29:37.615Z,100143.50
2018-05-03T00:32:05.138Z,100153.31
2018-05-03T00:34:32.627Z,100148.69
2018-05-03T00:37:00.125Z,100144.58
2018-05-03T00:39:27.619Z,100150.96
2018-05-03T00:41:55.107Z,100149.67
2018-05-03T00:44:22.596Z,100153.84
2018-05-03T00:46:50.111Z,100153.48
2018-05-03T00:49:17.636Z,100166.72
2018-05-03T00:51:45.141Z,100169.35
2018-05-03T00:54:24.241Z,100160.81
2018-05-03T00:56:51.728Z,100155.80
2018-05-03T00:59:19.224Z,100156.68
2018-05-03T01:01:46.717Z,100156.77
2018-05-03T01:04:14.210Z,100150.40
2018-05-03T01:06:41.727Z,100152.52
2018-05-03T01:09:09.223Z,100149.78
2018-05-03T01:11:36.699Z,100152.27
2018-05-03T01:14:04.225Z,100156.06
2018-05-03T01:16:31.745Z,100156.52
2018-05-03T01:18:59.261Z,100153.51
2018-05-03T01:21:26.797Z,100154.47
2018-05-03T01:23:54.306Z,100153.30
2018-05-03T01:26:21.779Z,100154.27
2018-05-03T01:28:49.753Z,100154.66
2018-05-03T01:31:17.265Z,100162.82
2018-05-03T01:33:44.943Z,100164.16
2018-05-03T01:36:24.095Z,100163.78
2018-05-03T01:38:51.587Z,100164.23
2018-05-03T01:41:19.091Z,100165.11
2018-05-03T01:43:46.580Z,100167.80
2018-05-03T01:46:14.070Z,100173.72
2018-05-03T01:48:41.571Z,100176.77
2018-05-03T01:51:09.070Z,100181.05
2018-05-03T01:53:36.619Z,100188.72
2018-05-03T01:56:04.108Z,100190.44
2018-05-03T01:58:31.591Z,100192.49
2018-05-03T02:00:59.088Z,100196.77
2018-05-03T02:03:26.610Z,100201.39
2018-05-03T02:05:54.084Z,100203.14
2018-05-03T02:08:21.616Z,100200.63
2018-05-03T02:10:49.099Z,100196.36
2018-05-03T02:13:16.589Z,100196.70
2018-05-03T02:15:44.140Z,100198.44
2018-05-03T02:18:11.676Z,100191.16
2018-05-03T02:20:39.155Z,100188.94
2018-05-03T02:23:06.659Z,100197.47
2018-05-03T02:25:34.141Z,100191.08
2018-05-03T02:28:01.642Z,100193.70
2018-05-03T02:30:29.155Z,100191.09
2018-05-03T02:32:56.658Z,100187.30
2018-05-03T02:35:24.182Z,100195.94
2018-05-03T02:37:51.710Z,100192.63
2018-05-03T02:40:19.207Z,100188.89
2018-05-03T02:42:46.708Z,100194.55
2018-05-03T02:45:14.265Z,100190.28
2018-05-03T02:47:41.768Z,100188.10
2018-05-03T02:50:09.273Z,100187.78
2018-05-03T02:52:36.792Z,100198.36
2018-05-03T02:55:04.286Z,100200.08
2018-05-03T02:57:49.249Z,100198.33
2018-05-03T03:03:50.778Z,100196.55
2018-05-03T03:06:35.735Z,100191.00
2018-05-03T03:12:38.750Z,100194.91
2018-05-03T03:15:23.732Z,100200.89
2018-05-03T03:18:08.703Z,100213.25
2018-05-03T03:20:54.577Z,100206.55
2018-05-03T03:23:39.565Z,100199.36
2018-05-03T03:29:36.090Z,100208.27
2018-05-03T03:32:15.409Z,100204.88
2018-05-03T03:34:42.929Z,100209.48
2018-05-03T03:37:22.105Z,100212.24
2018-05-03T03:40:07.087Z,100219.59
2018-05-03T03:45:49.374Z,100222.78
2018-05-03T03:48:16.842Z,100212.98
2018-05-03T03:50:44.342Z,100215.97
2018-05-03T03:53:11.913Z,100218.95
2018-05-03T03:55:39.418Z,100222.86
2018-05-03T03:58:06.962Z,100220.25
2018-05-03T04:00:34.464Z,100218.53
2018-05-03T04:03:02.024Z,100222.70
2018-05-03T04:05:29.562Z,100221.09
2018-05-03T04:07:57.053Z,100224.86
2018-05-03T04:10:24.580Z,100231.27
2018-05-03T04:12:52.115Z,100235.02
2018-05-03T04:15:19.669Z,100239.22
2018-05-03T04:17:58.992Z,100241.72
2018-05-03T04:20:40.180Z,100248.10
2018-05-03T04:26:11.207Z,100261.20
2018-05-03T04:28:38.722Z,100261.16
2018-05-03T04:31:07.352Z,100257.72
2018-05-03T04:33:34.933Z,100262.75
2018-05-03T04:36:02.423Z,100257.64
2018-05-03T04:38:29.913Z,100267.80
2018-05-03T04:40:57.398Z,100270.31
2018-05-03T04:43:24.900Z,100274.05
2018-05-03T04:45:52.447Z,100277.81
2018-05-03T04:48:19.959Z,100281.98
2018-05-03T04:50:47.453Z,100282.33
2018-05-03T04:53:14.950Z,100290.38
2018-05-03T04:55:42.504Z,100302.63
2018-05-03T04:58:10.005Z,100304.32
2018-05-03T05:00:37.627Z,100310.22
2018-05-03T05:03:05.115Z,100306.73
2018-05-03T05:05:32.880Z,100320.20
2018-05-03T05:08:00.363Z,100328.64
2018-05-03T05:10:27.861Z,100326.02
2018-05-03T05:12:55.370Z,100330.23
2018-05-03T05:15:22.879Z,100338.16
2018-05-03T05:17:50.399Z,100335.06
2018-05-03T05:20:17.930Z,100343.03
2018-05-03T05:22:45.434Z,100342.03
2018-05-03T05:25:12.984Z,100347.89
2018-05-03T05:27:40.501Z,100352.80
2018-05-03T05:30:07.985Z,100353.95
2018-05-03T05:32:35.503Z,100365.23
2018-05-03T05:35:02.985Z,100365.02
2018-05-03T05:37:30.500Z,100368.60
2018-05-03T05:39:57.998Z,100370.50
2018-05-03T05:42:25.514Z,100376.73
2018-05-03T05:44:53.016Z,100377.84
2018-05-03T05:47:20.501Z,100376.80
2018-05-03T05:49:47.994Z,100381.67
2018-05-03T05:52:15.483Z,100392.56
2018-05-03T05:54:42.979Z,100399.03
2018-05-03T05:57:10.458Z,100393.66
2018-05-03T05:59:37.966Z,100402.29
2018-05-03T06:02:05.465Z,100401.16
2018-05-03T06:04:33.000Z,100408.08
2018-05-03T06:07:00.554Z,100405.69
2018-05-03T06:09:28.148Z,100414.11
2018-05-03T06:11:55.656Z,100418.92
2018-05-03T06:14:23.146Z,100425.22
2018-05-03T06:16:50.685Z,100433.22
2018-05-03T06:19:18.220Z,100437.69
2018-05-03T06:21:45.737Z,100437.19
2018-05-03T06:24:13.280Z,100446.36
2018-05-03T06:26:40.774Z,100439.80
2018-05-03T06:29:08.310Z,100438.66
2018-05-03T06:31:35.908Z,100445.11
2018-05-03T06:34:03.427Z,100439.04
2018-05-03T06:36:30.938Z,100443.80
2018-05-03T06:38:58.531Z,100442.38
2018-05-03T06:41:25.943Z,100443.11
2018-05-03T06:43:53.460Z,100438.13
2018-05-03T06:46:21.101Z,100446.42
2018-05-03T06:48:48.602Z,100458.79
2018-05-03T06:51:16.126Z,100463.36
2018-05-03T06:53:43.649Z,100461.97
2018-05-03T06:56:11.155Z,100471.48
2018-05-03T06:58:38.730Z,100465.93
2018-05-03T07:01:06.233Z,100472.52
2018-05-03T07:03:33.730Z,100474.32
2018-05-03T07:06:01.243Z,100476.41
2018-05-03T07:08:28.764Z,100470.30
2018-05-03T07:10:56.249Z,100478.78
2018-05-03T07:13:23.776Z,100482.14
2018-05-03T07:15:51.330Z,100488.16
2018-05-03T07:18:18.869Z,100486.75
2018-05-03T07:20:46.376Z,100485.64
2018-05-03T07:23:13.861Z,100486.88
2018-05-03T07:25:41.392Z,100491.94
2018-05-03T07:28:08.878Z,100502.97
2018-05-03T07:30:36.367Z,100511.06
2018-05-03T07:33:03.889Z,100510.33
2018-05-03T07:35:31.404Z,100517.83
2018-05-03T07:37:58.888Z,100514.23
2018-05-03T07:40:26.387Z,100525.00
2018-05-03T07:42:53.880Z,100522.47
2018-05-03T07:45:21.392Z,100527.72
2018-05-03T07:47:48.910Z,100525.78
2018-05-03T07:50:16.421Z,100525.37
2018-05-03T07:52:43.908Z,100529.81
2018-05-03T07:55:11.437Z,100528.98
2018-05-03T07:57:38.965Z,100530.00
2018-05-03T08:00:06.541Z,100533.17
2018-05-03T08:02:34.082Z,100532.66
2018-05-03T08:05:01.592Z,100526.30
2018-05-03T08:07:29.092Z,100527.88
2018-05-03T08:09:56.611Z,100532.39
2018-05-03T08:12:24.131Z,100530.45
2018-05-03T08:14:51.635Z,100544.12
2018-05-03T08:17:19.158Z,100539.21
2018-05-03T08:19:46.672Z,100547.20
2018-05-03T08:22:14.172Z,100537.78
2018-05-03T08:24:42.147Z,100544.34
2018-05-03T08:27:09.657Z,100547.39
2018-05-03T08:29:37.154Z,100555.25
2018-05-03T08:32:04.662Z,100559.92
2018-05-03T08:34:32.147Z,100563.45
2018-05-03T08:36:59.629Z,100566.37
2018-05-03T08:39:27.117Z,100571.02
2018-05-03T08:41:54.671Z,100563.33
2018-05-03T08:44:22.219Z,100573.59
2018-05-03T08:46:49.706Z,100578.42
2018-05-03T08:49:17.266Z,100588.34
2018-05-03T08:51:44.747Z,100584.09
2018-05-03T08:54:12.258Z,100593.78
2018-05-03T08:56:39.761Z,100591.37
2018-05-03T08:59:07.337Z,100596.59
2018-05-03T09:01:34.787Z,100601.73
2018-05-03T09:04:02.393Z,100605.32
2018-05-03T09:06:29.924Z,100608.39
2018-05-03T09:08:57.421Z,100615.03
2018-05-03T09:11:24.970Z,100619.96
2018-05-03T09:13:52.473Z,100616.81
2018-05-03T09:16:19.967Z,100618.55
2018-05-03T09:18:47.463Z,100626.17
2018-05-03T09:21:15.019Z,100631.20
2018-05-03T09:23:42.525Z,100638.26
2018-05-03T09:26:10.068Z,100635.12
2018-05-03T09:28:37.523Z,100643.28
2018-05-03T09:31:05.012Z,100644.36
2018-05-03T09:33:32.501Z,100636.92
2018-05-03T09:35:59.999Z,100637.85
2018-05-03T09:38:27.507Z,100648.97
2018-05-03T09:40:54.985Z,100649.25
2018-05-03T09:43:22.486Z,100658.27
2018-05-03T09:45:49.977Z,100655.89
2018-05-03T09:48:17.453Z,100657.34
2018-05-03T09:50:44.959Z,100654.87
2018-05-03T09:53:12.449Z,100658.84
2018-05-03T09:55:39.947Z,100653.63
2018-05-03T09:58:07.653Z,100665.80
2018-05-03T10:00:35.192Z,100658.22
2018-05-03T10:03:02.668Z,100660.89
2018-05-03T10:05:30.154Z,100661.08
2018-05-03T10:07:57.653Z,100659.90
2018-05-03T10:10:25.141Z,100657.83
2018-05-03T10:12:52.620Z,100662.27
2018-05-03T10:15:20.105Z,100662.52
2018-05-03T10:17:47.577Z,100668.19
2018-05-03T10:20:15.106Z,100668.52
2018-05-03T10:22:42.591Z,100672.66
2018-05-03T10:25:10.081Z,100673.63
2018-05-03T10:27:37.585Z,100672.14
2018-05-03T10:30:05.112Z,100670.66
2018-05-03T10:32:32.663Z,100683.73
2018-05-03T10:35:00.148Z,100684.06
2018-05-03T10:37:27.666Z,100689.22
2018-05-03T10:39:55.156Z,100686.62
2018-05-03T10:42:22.620Z,100691.95
2018-05-03T10:44:50.087Z,100692.69
2018-05-03T10:47:17.568Z,100688.80
2018-05-03T10:49:45.066Z,100696.39
2018-05-03T10:52:12.536Z,100688.95
2018-05-03T10:54:40.024Z,100691.03
2018-05-03T10:57:07.535Z,100707.15
2018-05-03T10:59:35.036Z,100706.80
2018-05-03T11:02:02.540Z,100702.45
2018-05-03T11:04:30.031Z,100708.05
2018-05-03T11:06:57.538Z,100707.95
2018-05-03T11:09:25.049Z,100701.95
2018-05-03T11:11:52.540Z,100709.58
2018-05-03T11:14:20.038Z,100706.55
2018-05-03T11:16:47.582Z,100708.53
2018-05-03T11:19:15.059Z,100708.23
2018-05-03T11:21:42.582Z,100705.84
2018-05-03T11:24:10.099Z,100711.28
2018-05-03T11:26:37.595Z,100709.79
2018-05-03T11:29:05.098Z,100707.78
2018-05-03T11:31:32.633Z,100713.69
2018-05-03T11:34:00.104Z,100715.40
2018-05-03T11:36:27.589Z,100714.72
2018-05-03T11:38:55.115Z,100717.97
2018-05-03T11:41:22.612Z,100726.05
2018-05-03T11:43:50.117Z,100730.16
2018-05-03T11:46:17.695Z,100734.41
2018-05-03T11:48:45.208Z,100726.64
2018-05-03T11:51:12.680Z,100729.06
2018-05-03T11:53:40.196Z,100730.45
2018-05-03T11:56:07.743Z,100734.62
2018-05-03T11:58:35.219Z,100730.19
2018-05-03T12:01:02.707Z,100736.63
2018-05-03T12:03:30.223Z,100731.08
2018-05-03T12:05:57.821Z,100741.31
2018-05-03T12:08:25.232Z,100746.31
2018-05-03T12:10:52.731Z,100746.36
2018-05-03T12:13:20.248Z,100760.47
2018-05-03T12:15:47.748Z,100756.32
2018-05-03T12:18:15.225Z,100767.55
2018-05-03T12:20:42.698Z,100753.46
2018-05-03T12:23:10.207Z,100756.73
2018-05-03T12:25:37.700Z,100752.03
2018-05-03T12:28:05.194Z,100758.87
2018-05-03T12:30:32.702Z,100756.83
2018-05-03T12:33:00.216Z,100755.52
2018-05-03T12:35:27.698Z,100760.84
2018-05-03T12:37:55.191Z,100745.20
2018-05-03T12:40:22.687Z,100755.11
2018-05-03T12:42:50.187Z,100749.00
2018-05-03T12:45:17.665Z,100760.99
2018-05-03T12:47:45.174Z,100765.31
2018-05-03T12:50:12.656Z,100760.11
2018-05-03T12:52:40.183Z,100760.84
2018-05-03T12:55:07.656Z,100764.08
2018-05-03T12:57:35.124Z,100759.96
2018-05-03T13:00:02.614Z,100763.91
2018-05-03T13:02:30.099Z,100764.61
2018-05-03T13:04:57.600Z,100758.31
2018-05-03T13:07:25.078Z,100751.23
2018-05-03T13:09:52.571Z,100742.88
2018-05-03T13:12:20.079Z,100746.80
2018-05-03T13:14:47.562Z,100750.10
2018-05-03T13:17:15.067Z,100748.16
2018-05-03T13:19:42.588Z,100748.59
2018-05-03T13:22:10.098Z,100749.92
2018-05-03T13:24:37.652Z,100754.28
2018-05-03T13:27:05.144Z,100753.22
2018-05-03T13:29:32.622Z,100750.19
2018-05-03T13:32:00.128Z,100755.64
2018-05-03T13:34:27.673Z,100760.71
2018-05-03T13:36:55.151Z,100757.02
2018-05-03T13:39:22.663Z,100757.73
2018-05-03T13:41:50.160Z,100754.17
2018-05-03T13:44:17.656Z,100762.35
2018-05-03T13:46:45.143Z,100761.45
2018-05-03T13:49:12.664Z,100768.31
2018-05-03T13:51:40.169Z,100770.30
2018-05-03T13:54:07.652Z,100769.44
2018-05-03T13:56:35.202Z,100767.39
2018-05-03T13:59:02.699Z,100761.80
2018-05-03T14:01:30.201Z,100759.63
2018-05-03T14:03:57.714Z,100764.58
2018-05-03T14:06:25.214Z,100767.78
2018-05-03T14:08:52.794Z,100764.69
2018-05-03T14:11:20.294Z,100766.61
2018-05-03T14:13:47.811Z,100765.47
2018-05-03T14:16:15.290Z,100765.48
2018-05-03T14:18:42.803Z,100765.67
2018-05-03T14:21:10.378Z,100766.82
2018-05-03T14:23:37.901Z,100769.36
2018-05-03T14:26:05.470Z,100772.73
2018-05-03T14:28:32.966Z,100764.84
2018-05-03T14:31:00.453Z,100768.47
2018-05-03T14:33:27.943Z,100767.54
2018-05-03T14:35:55.424Z,100772.00
2018-05-03T14:38:22.921Z,100770.97
2018-05-03T14:40:50.391Z,100774.39
2018-05-03T14:43:17.914Z,100777.40
2018-05-03T14:45:45.408Z,100775.78
2018-05-03T14:48:12.892Z,100780.47
2018-05-03T14:50:40.359Z,100766.70
2018-05-03T14:53:07.883Z,100769.34
2018-05-03T14:55:35.365Z,100774.08
2018-05-03T14:58:02.894Z,100769.78
2018-05-03T15:00:30.377Z,100772.42
2018-05-03T15:02:57.927Z,100770.30
2018-05-03T15:05:25.422Z,100773.53
2018-05-03T15:07:52.931Z,100774.52
2018-05-03T15:10:20.420Z,100775.55
2018-05-03T15:12:48.096Z,100774.69
2018-05-03T15:15:15.468Z,100777.59
2018-05-03T15:17:42.924Z,100779.10
2018-05-03T15:20:10.451Z,100781.45
2018-05-03T15:22:37.951Z,100789.02
2018-05-03T15:25:05.469Z,100786.08
2018-05-03T15:27:32.944Z,100785.76
2018-05-03T15:30:00.453Z,100783.06
2018-05-03T15:32:27.929Z,100783.34
2018-05-03T15:34:55.412Z,100788.09
2018-05-03T15:37:22.979Z,100787.71
2018-05-03T15:39:50.452Z,100784.83
2018-05-03T15:42:17.947Z,100786.63
2018-05-03T15:44:45.420Z,100795.67
2018-05-03T15:47:12.907Z,100792.56
2018-05-03T15:49:40.403Z,100797.33
2018-05-03T15:52:07.897Z,100793.30
2018-05-03T15:54:35.392Z,100790.48
2018-05-03T15:57:03.080Z,100791.68
2018-05-03T15:59:30.570Z,100797.55
2018-05-03T16:01:58.067Z,100800.31
2018-05-03T16:04:25.544Z,100795.65
2018-05-03T16:06:53.049Z,100800.91
2018-05-03T16:09:21.922Z,100807.13
2018-05-03T16:11:49.437Z,100807.03
2018-05-03T16:14:17.084Z,100803.75
2018-05-03T16:16:44.540Z,100807.14
2018-05-03T16:19:12.055Z,100807.64
2018-05-03T16:21:39.569Z,100804.27
2018-05-03T16:24:07.074Z,100804.78
2018-05-03T16:26:34.591Z,100811.42
2018-05-03T16:29:02.123Z,100812.68
2018-05-03T16:31:29.631Z,100813.42
2018-05-03T16:33:57.115Z,100812.91
2018-05-03T16:36:24.631Z,100810.59
2018-05-03T16:38:52.131Z,100809.48
2018-05-03T16:41:19.612Z,100809.63
2018-05-03T16:43:47.098Z,100814.77
2018-05-03T16:46:14.572Z,100814.24
2018-05-03T16:48:42.082Z,100806.41
2018-05-03T16:51:09.569Z,100813.05
2018-05-03T16:53:37.081Z,100816.00
2018-05-03T16:56:04.583Z,100821.13
2018-05-03T16:58:32.099Z,100827.36
2018-05-03T17:00:59.602Z,100829.10
2018-05-03T17:03:27.091Z,100827.03
2018-05-03T17:05:54.597Z,100834.84
2018-05-03T17:08:22.103Z,100835.39
2018-05-03T17:10:49.603Z,100841.05
2018-05-03T17:13:17.121Z,100846.67
2018-05-03T17:15:44.612Z,100849.61
2018-05-03T17:18:12.093Z,100849.31
2018-05-03T17:20:39.572Z,100848.06
2018-05-03T17:23:07.082Z,100849.91
2018-05-03T17:25:34.580Z,100853.37
2018-05-03T17:28:02.101Z,100856.27
2018-05-03T17:30:29.589Z,100862.02
2018-05-03T17:32:57.071Z,100864.55
2018-05-03T17:35:24.635Z,100863.39
2018-05-03T17:37:52.104Z,100865.27
2018-05-03T17:40:19.587Z,100873.11
2018-05-03T17:42:47.082Z,100881.44
2018-05-03T17:45:14.567Z,100883.39
2018-05-03T17:47:42.069Z,100890.30
2018-05-03T17:50:09.579Z,100900.55
2018-05-03T17:52:37.069Z,100904.47
2018-05-03T17:55:04.548Z,100908.61
2018-05-03T17:57:32.067Z,100908.53
2018-05-03T17:59:59.566Z,100911.69
2018-05-03T18:02:27.062Z,100922.03
2018-05-03T18:04:54.538Z,100920.05
2018-05-03T18:07:22.032Z,100919.75
2018-05-03T18:09:49.537Z,100921.53
2018-05-03T18:12:17.034Z,100930.66
2018-05-03T18:14:44.509Z,100938.44
2018-05-03T18:17:11.984Z,100940.88
2018-05-03T18:19:39.465Z,100946.38
2018-05-03T18:22:06.968Z,100949.86
2018-05-03T18:24:34.446Z,100956.25
2018-05-03T18:27:01.960Z,100957.27
2018-05-03T18:29:29.434Z,100961.45
2018-05-03T18:31:56.953Z,100969.31
2018-05-03T18:34:24.478Z,100974.60
2018-05-03T18:36:51.984Z,100981.20
2018-05-03T18:39:19.471Z,100984.58
2018-05-03T18:41:46.984Z,100989.80
2018-05-03T18:44:14.495Z,100998.34
2018-05-03T18:46:41.974Z,101001.75
2018-05-03T18:49:09.478Z,101011.88
2018-05-03T18:51:36.968Z,101010.31
2018-05-03T18:54:04.491Z,101011.17
2018-05-03T18:56:31.994Z,101011.66
2018-05-03T18:58:59.492Z,101015.99
2018-05-03T19:01:26.992Z,101018.45
2018-05-03T19:03:54.584Z,101024.22
2018-05-03T19:06:23.897Z,101027.40
2018-05-03T19:08:51.423Z,101023.17
2018-05-03T19:11:18.991Z,101023.93
2018-05-03T19:13:48.191Z,101024.88
2018-05-03T19:16:15.700Z,101036.09
2018-05-03T19:18:43.212Z,101040.54
2018-05-03T19:21:11.272Z,101037.85
2018-05-03T19:23:38.904Z,101047.49
2018-05-03T19:26:06.493Z,101054.58
2018-05-03T19:28:34.055Z,101055.04
2018-05-03T19:31:01.647Z,101056.90
2018-05-03T19:33:29.189Z,101065.11
2018-05-03T19:35:56.698Z,101070.67
2018-05-03T19:38:24.200Z,101072.10
2018-05-03T19:40:51.740Z,101073.29
2018-05-03T19:43:19.372Z,101070.46
2018-05-03T19:45:47.024Z,101078.10
2018-05-03T19:48:14.526Z,101083.11
2018-05-03T19:50:42.111Z,101079.76
2018-05-03T19:53:09.642Z,101084.14
2018-05-03T19:55:38.985Z,101089.62
2018-05-03T19:58:06.496Z,101090.70
2018-05-03T20:00:34.029Z,101091.66
2018-05-03T20:03:01.775Z,101091.83
2018-05-03T20:05:29.572Z,101096.59
2018-05-03T20:07:57.527Z,101093.58
2018-05-03T20:10:25.017Z,101095.79
2018-05-03T20:12:52.755Z,101104.05
2018-05-03T20:15:33.072Z,101105.41
2018-05-03T20:18:00.786Z,101112.36
2018-05-03T20:20:28.294Z,101112.69
2018-05-03T20:22:55.802Z,101115.34
2018-05-03T20:25:23.320Z,101118.08
2018-05-03T20:27:50.866Z,101111.73
2018-05-03T20:30:18.440Z,101120.28
2018-05-03T20:32:46.068Z,101113.39
2018-05-03T20:35:13.577Z,101114.76
2018-05-03T20:37:41.339Z,101116.95
2018-05-03T20:40:08.881Z,101116.47
2018-05-03T20:42:36.600Z,101118.69
2018-05-03T20:45:04.103Z,101126.52
2018-05-03T20:47:45.426Z,101124.06
2018-05-03T20:50:12.964Z,101123.83
2018-05-03T20:52:40.552Z,101129.59
2018-05-03T20:55:08.048Z,101140.73
2018-05-03T20:57:35.560Z,101140.83
2018-05-03T21:00:03.182Z,101149.33
2018-05-03T21:02:30.805Z,101145.56
2018-05-03T21:04:58.473Z,101148.72
2018-05-03T21:07:26.002Z,101147.50
2018-05-03T21:09:53.510Z,101155.57
2018-05-03T21:12:20.993Z,101154.34
2018-05-03T21:14:49.032Z,101153.95
2018-05-03T21:17:16.560Z,101155.39
2018-05-03T21:19:44.070Z,101150.80
2018-05-03T21:22:11.903Z,101150.45
2018-05-03T21:24:39.636Z,101147.04
2018-05-03T21:27:07.749Z,101149.50
2018-05-03T21:29:35.317Z,101151.30
2018-05-03T21:32:02.891Z,101147.07
2018-05-03T21:34:30.386Z,101156.05
2018-05-03T21:36:57.985Z,101149.67
2018-05-03T21:39:25.520Z,101156.07
2018-05-03T21:41:53.105Z,101156.57
2018-05-03T21:44:20.920Z,101165.14
2018-05-03T21:46:48.482Z,101162.62
2018-05-03T21:49:19.165Z,101168.14
2018-05-03T21:51:46.927Z,101167.20
2018-05-03T21:54:15.001Z,101172.81
2018-05-03T21:56:42.931Z,101167.70
2018-05-03T21:59:10.484Z,101173.70
2018-05-03T22:01:38.295Z,101178.45
2018-05-03T22:04:05.868Z,101176.33
2018-05-03T22:06:33.517Z,101177.19
2018-05-03T22:09:01.036Z,101179.36
2018-05-03T22:11:28.624Z,101177.68
2018-05-03T22:13:56.133Z,101174.75
2018-05-03T22:16:23.620Z,101170.91
2018-05-03T22:18:51.144Z,101181.17
2018-05-03T22:21:18.628Z,101178.60
2018-05-03T22:23:46.277Z,101179.91
2018-05-03T22:26:13.832Z,101183.76
2018-05-03T22:28:41.314Z,101185.89
2018-05-03T22:31:08.853Z,101192.26
2018-05-03T22:33:36.454Z,101188.48
2018-05-03T22:36:04.252Z,101188.44
2018-05-03T22:38:31.754Z,101197.85
2018-05-03T22:40:59.786Z,101192.31
2018-05-03T22:43:27.268Z,101194.42
2018-05-03T22:45:54.773Z,101194.83
2018-05-03T22:48:22.252Z,101195.28
2018-05-03T22:50:49.917Z,101202.10
2018-05-03T22:53:17.501Z,101197.83
2018-05-03T22:55:45.098Z,101193.98
2018-05-03T22:58:12.904Z,101193.58
2018-05-03T23:00:40.431Z,101192.73
2018-05-03T23:03:07.925Z,101193.98
2018-05-03T23:05:35.394Z,101198.68
2018-05-03T23:08:03.041Z,101200.05
2018-05-03T23:10:30.594Z,101202.62
2018-05-03T23:12:58.088Z,101197.09
2018-05-03T23:15:25.755Z,101203.48
2018-05-03T23:17:53.245Z,101203.93
2018-05-03T23:20:20.728Z,101200.95
2018-05-03T23:22:48.213Z,101199.65
2018-05-03T23:25:15.723Z,101195.83
2018-05-03T23:27:43.221Z,101191.56
2018-05-03T23:30:10.751Z,101197.55
2018-05-03T23:32:38.226Z,101194.14
2018-05-03T23:35:05.704Z,101197.11
2018-05-03T23:37:33.195Z,101200.07
2018-05-03T23:40:00.683Z,101196.66
2018-05-03T23:42:28.149Z,101194.53
2018-05-03T23:44:55.668Z,101191.15
2018-05-03T23:47:23.136Z,101193.23
2018-05-03T23:49:50.628Z,101188.94
2018-05-03T23:52:18.113Z,101192.81
2018-05-03T23:54:45.604Z,101199.59
2018-05-03T23:57:13.091Z,101206.83
2018-05-03T23:59:40.573Z,101216.61
